sensor_id;sensor_type;location;lat;lon;timestamp;P1;durP1;ratioP1;P2;durP2;ratioP2
70320;SDS011;61127;55.826;37.046;2022-08-01T00:02:05;9.40;;;4.55;;
70320;SDS011;61127;55.826;37.046;2022-08-01T00:04:31;8.63;;;4.15;;
70320;SDS011;61127;55.826;37.046;2022-08-01T00:06:57;9.05;;;4.15;;
70320;SDS011;61127;55.826;37.046;2022-08-01T00:09:23;9.23;;;4.47;;
70320;SDS011;61127;55.826;37.046;2022-08-01T00:11:48;10.50;;;4.20;;
70320;SDS011;61127;55.826;37.046;2022-08-01T00:14:15;10.30;;;4.57;;
70320;SDS011;61127;55.826;37.046;2022-08-01T00:16:41;8.88;;;4.22;;
70320;SDS011;61127;55.826;37.046;2022-08-01T00:19:07;8.07;;;4.60;;
70320;SDS011;61127;55.826;37.046;2022-08-01T00:21:32;7.60;;;4.30;;
70320;SDS011;61127;55.826;37.046;2022-08-01T00:23:59;10.87;;;4.57;;
70320;SDS011;61127;55.826;37.046;2022-08-01T00:26:25;10.57;;;4.47;;
70320;SDS011;61127;55.826;37.046;2022-08-01T00:28:51;8.80;;;4.32;;
70320;SDS011;61127;55.826;37.046;2022-08-01T00:31:16;10.80;;;4.60;;
70320;SDS011;61127;55.826;37.046;2022-08-01T00:33:43;9.25;;;4.53;;
70320;SDS011;61127;55.826;37.046;2022-08-01T00:36:09;10.48;;;4.35;;
70320;SDS011;61127;55.826;37.046;2022-08-01T00:38:35;10.17;;;4.67;;
70320;SDS011;61127;55.826;37.046;2022-08-01T00:41:00;11.65;;;4.03;;
70320;SDS011;61127;55.826;37.046;2022-08-01T00:43:27;7.97;;;4.27;;
70320;SDS011;61127;55.826;37.046;2022-08-01T00:45:53;9.27;;;4.28;;
70320;SDS011;61127;55.826;37.046;2022-08-01T00:48:18;13.03;;;4.47;;
70320;SDS011;61127;55.826;37.046;2022-08-01T00:50:44;9.10;;;4.30;;
70320;SDS011;61127;55.826;37.046;2022-08-01T00:53:11;11.43;;;4.95;;
70320;SDS011;61127;55.826;37.046;2022-08-01T00:55:37;11.52;;;4.22;;
70320;SDS011;61127;55.826;37.046;2022-08-01T00:58:03;8.87;;;4.50;;
70320;SDS011;61127;55.826;37.046;2022-08-01T01:00:29;7.85;;;3.97;;
70320;SDS011;61127;55.826;37.046;2022-08-01T01:02:57;10.40;;;3.88;;
70320;SDS011;61127;55.826;37.046;2022-08-01T01:05:23;10.38;;;4.30;;
70320;SDS011;61127;55.826;37.046;2022-08-01T01:10:22;10.07;;;4.25;;
70320;SDS011;61127;55.826;37.046;2022-08-01T01:13:16;9.77;;;4.22;;
70320;SDS011;61127;55.826;37.046;2022-08-01T01:18:35;7.70;;;4.30;;
70320;SDS011;61127;55.826;37.046;2022-08-01T01:21:10;10.82;;;4.20;;
70320;SDS011;61127;55.826;37.046;2022-08-01T01:31:43;9.77;;;4.32;;
70320;SDS011;61127;55.826;37.046;2022-08-01T01:34:15;8.10;;;4.20;;
70320;SDS011;61127;55.826;37.046;2022-08-01T01:36:43;8.60;;;4.18;;
70320;SDS011;61127;55.826;37.046;2022-08-01T01:39:11;8.82;;;4.00;;
70320;SDS011;61127;55.826;37.046;2022-08-01T01:41:40;7.10;;;3.50;;
70320;SDS011;61127;55.826;37.046;2022-08-01T01:44:09;7.10;;;3.75;;
70320;SDS011;61127;55.826;37.046;2022-08-01T01:46:35;7.47;;;4.07;;
70320;SDS011;61127;55.826;37.046;2022-08-01T01:49:02;10.70;;;4.32;;
70320;SDS011;61127;55.826;37.046;2022-08-01T01:51:30;8.68;;;3.72;;
70320;SDS011;61127;55.826;37.046;2022-08-01T01:53:59;8.80;;;4.00;;
70320;SDS011;61127;55.826;37.046;2022-08-01T01:56:29;10.43;;;3.90;;
70320;SDS011;61127;55.826;37.046;2022-08-01T01:58:57;8.43;;;4.07;;
70320;SDS011;61127;55.826;37.046;2022-08-01T02:01:27;9.63;;;4.15;;
70320;SDS011;61127;55.826;37.046;2022-08-01T02:04:00;9.85;;;4.38;;
70320;SDS011;61127;55.826;37.046;2022-08-01T02:06:28;13.33;;;4.00;;
70320;SDS011;61127;55.826;37.046;2022-08-01T02:08:57;12.30;;;4.47;;
70320;SDS011;61127;55.826;37.046;2022-08-01T02:11:25;11.88;;;4.10;;
70320;SDS011;61127;55.826;37.046;2022-08-01T02:13:52;10.05;;;3.85;;
70320;SDS011;61127;55.826;37.046;2022-08-01T02:16:21;10.13;;;3.83;;
70320;SDS011;61127;55.826;37.046;2022-08-01T02:18:50;8.25;;;4.05;;
70320;SDS011;61127;55.826;37.046;2022-08-01T02:21:18;8.57;;;4.10;;
70320;SDS011;61127;55.826;37.046;2022-08-01T02:23:51;8.02;;;3.88;;
70320;SDS011;61127;55.826;37.046;2022-08-01T02:26:19;9.15;;;4.03;;
70320;SDS011;61127;55.826;37.046;2022-08-01T02:28:50;9.03;;;3.97;;
70320;SDS011;61127;55.826;37.046;2022-08-01T02:31:27;8.25;;;4.22;;
70320;SDS011;61127;55.826;37.046;2022-08-01T02:34:01;9.57;;;3.80;;
70320;SDS011;61127;55.826;37.046;2022-08-01T02:36:30;7.95;;;3.70;;
70320;SDS011;61127;55.826;37.046;2022-08-01T02:39:06;11.77;;;4.35;;
70320;SDS011;61127;55.826;37.046;2022-08-01T02:41:43;7.07;;;3.90;;
70320;SDS011;61127;55.826;37.046;2022-08-01T02:44:24;8.25;;;3.70;;
70320;SDS011;61127;55.826;37.046;2022-08-01T02:46:57;7.88;;;4.18;;
70320;SDS011;61127;55.826;37.046;2022-08-01T02:49:31;10.10;;;3.90;;
70320;SDS011;61127;55.826;37.046;2022-08-01T02:52:07;8.40;;;4.03;;
70320;SDS011;61127;55.826;37.046;2022-08-01T02:54:35;9.13;;;4.10;;
70320;SDS011;61127;55.826;37.046;2022-08-01T02:57:02;7.65;;;4.20;;
70320;SDS011;61127;55.826;37.046;2022-08-01T02:59:31;14.27;;;4.40;;
70320;SDS011;61127;55.826;37.046;2022-08-01T03:02:02;9.73;;;4.32;;
70320;SDS011;61127;55.826;37.046;2022-08-01T03:04:32;8.63;;;4.05;;
70320;SDS011;61127;55.826;37.046;2022-08-01T03:07:00;9.23;;;4.03;;
70320;SDS011;61127;55.826;37.046;2022-08-01T03:09:29;10.30;;;4.18;;
70320;SDS011;61127;55.826;37.046;2022-08-01T03:12:00;9.80;;;4.40;;
70320;SDS011;61127;55.826;37.046;2022-08-01T03:14:29;9.13;;;4.20;;
70320;SDS011;61127;55.826;37.046;2022-08-01T03:16:59;7.88;;;3.85;;
70320;SDS011;61127;55.826;37.046;2022-08-01T03:19:25;8.67;;;3.87;;
70320;SDS011;61127;55.826;37.046;2022-08-01T03:21:53;9.27;;;4.10;;
70320;SDS011;61127;55.826;37.046;2022-08-01T03:24:22;8.13;;;3.92;;
70320;SDS011;61127;55.826;37.046;2022-08-01T03:26:49;10.85;;;4.53;;
70320;SDS011;61127;55.826;37.046;2022-08-01T03:29:19;10.98;;;4.07;;
70320;SDS011;61127;55.826;37.046;2022-08-01T03:31:49;6.93;;;4.10;;
70320;SDS011;61127;55.826;37.046;2022-08-01T03:34:17;12.15;;;3.60;;
70320;SDS011;61127;55.826;37.046;2022-08-01T03:39:42;9.60;;;3.70;;
70320;SDS011;61127;55.826;37.046;2022-08-01T03:42:13;10.00;;;4.03;;
70320;SDS011;61127;55.826;37.046;2022-08-01T03:44:59;8.40;;;4.40;;
70320;SDS011;61127;55.826;37.046;2022-08-01T03:47:32;12.68;;;4.22;;
70320;SDS011;61127;55.826;37.046;2022-08-01T03:50:00;9.30;;;4.07;;
70320;SDS011;61127;55.826;37.046;2022-08-01T03:52:30;8.55;;;3.80;;
70320;SDS011;61127;55.826;37.046;2022-08-01T03:54:58;10.98;;;4.20;;
70320;SDS011;61127;55.826;37.046;2022-08-01T03:57:28;7.63;;;3.80;;
70320;SDS011;61127;55.826;37.046;2022-08-01T03:59:56;7.07;;;3.60;;
70320;SDS011;61127;55.826;37.046;2022-08-01T04:02:26;8.35;;;3.90;;
70320;SDS011;61127;55.826;37.046;2022-08-01T04:04:52;7.15;;;3.95;;
70320;SDS011;61127;55.826;37.046;2022-08-01T04:07:23;8.95;;;3.92;;
70320;SDS011;61127;55.826;37.046;2022-08-01T04:09:50;6.73;;;3.37;;
70320;SDS011;61127;55.826;37.046;2022-08-01T04:12:16;6.65;;;3.70;;
70320;SDS011;61127;55.826;37.046;2022-08-01T04:14:43;7.80;;;3.30;;
70320;SDS011;61127;55.826;37.046;2022-08-01T04:17:09;6.57;;;3.55;;
70320;SDS011;61127;55.826;37.046;2022-08-01T04:19:35;8.47;;;3.67;;
70320;SDS011;61127;55.826;37.046;2022-08-01T04:22:01;7.40;;;3.33;;
70320;SDS011;61127;55.826;37.046;2022-08-01T04:24:28;7.72;;;3.58;;
70320;SDS011;61127;55.826;37.046;2022-08-01T04:26:57;7.18;;;3.40;;
70320;SDS011;61127;55.826;37.046;2022-08-01T04:29:25;9.80;;;3.38;;
70320;SDS011;61127;55.826;37.046;2022-08-01T04:31:53;5.27;;;2.80;;
70320;SDS011;61127;55.826;37.046;2022-08-01T04:34:22;8.13;;;3.28;;
70320;SDS011;61127;55.826;37.046;2022-08-01T04:36:51;8.32;;;3.67;;
70320;SDS011;61127;55.826;37.046;2022-08-01T04:39:20;7.60;;;3.22;;
70320;SDS011;61127;55.826;37.046;2022-08-01T04:41:52;7.80;;;3.08;;
70320;SDS011;61127;55.826;37.046;2022-08-01T04:44:23;7.93;;;3.20;;
70320;SDS011;61127;55.826;37.046;2022-08-01T04:46:51;7.38;;;3.10;;
70320;SDS011;61127;55.826;37.046;2022-08-01T04:49:19;6.97;;;3.00;;
70320;SDS011;61127;55.826;37.046;2022-08-01T04:51:50;8.23;;;3.00;;
70320;SDS011;61127;55.826;37.046;2022-08-01T04:54:17;6.63;;;2.97;;
70320;SDS011;61127;55.826;37.046;2022-08-01T04:56:43;6.43;;;2.80;;
70320;SDS011;61127;55.826;37.046;2022-08-01T04:59:09;7.22;;;2.95;;
70320;SDS011;61127;55.826;37.046;2022-08-01T05:01:54;11.85;;;3.05;;
70320;SDS011;61127;55.826;37.046;2022-08-01T05:04:21;5.70;;;2.33;;
70320;SDS011;61127;55.826;37.046;2022-08-01T05:06:46;5.32;;;2.60;;
70320;SDS011;61127;55.826;37.046;2022-08-01T05:09:13;9.82;;;2.60;;
70320;SDS011;61127;55.826;37.046;2022-08-01T05:11:38;7.70;;;2.50;;
70320;SDS011;61127;55.826;37.046;2022-08-01T05:14:05;4.45;;;2.67;;
70320;SDS011;61127;55.826;37.046;2022-08-01T05:16:32;4.63;;;2.35;;
70320;SDS011;61127;55.826;37.046;2022-08-01T05:18:57;8.53;;;2.73;;
70320;SDS011;61127;55.826;37.046;2022-08-01T05:21:23;7.55;;;2.42;;
70320;SDS011;61127;55.826;37.046;2022-08-01T05:23:50;8.47;;;2.30;;
70320;SDS011;61127;55.826;37.046;2022-08-01T05:26:17;7.13;;;2.47;;
70320;SDS011;61127;55.826;37.046;2022-08-01T05:28:42;6.72;;;2.50;;
70320;SDS011;61127;55.826;37.046;2022-08-01T05:31:08;10.13;;;2.47;;
70320;SDS011;61127;55.826;37.046;2022-08-01T05:33:35;8.83;;;2.60;;
70320;SDS011;61127;55.826;37.046;2022-08-01T05:36:01;5.63;;;2.30;;
70320;SDS011;61127;55.826;37.046;2022-08-01T05:38:27;7.38;;;2.40;;
70320;SDS011;61127;55.826;37.046;2022-08-01T05:40:53;7.43;;;2.77;;
70320;SDS011;61127;55.826;37.046;2022-08-01T05:43:20;4.60;;;2.28;;
70320;SDS011;61127;55.826;37.046;2022-08-01T05:45:46;5.85;;;2.47;;
70320;SDS011;61127;55.826;37.046;2022-08-01T05:48:12;7.00;;;2.38;;
70320;SDS011;61127;55.826;37.046;2022-08-01T05:50:38;6.57;;;2.70;;
70320;SDS011;61127;55.826;37.046;2022-08-01T05:53:04;13.70;;;2.90;;
70320;SDS011;61127;55.826;37.046;2022-08-01T05:55:29;8.33;;;2.70;;
70320;SDS011;61127;55.826;37.046;2022-08-01T05:57:55;8.63;;;2.77;;
70320;SDS011;61127;55.826;37.046;2022-08-01T06:00:21;6.90;;;2.75;;
70320;SDS011;61127;55.826;37.046;2022-08-01T06:02:47;7.40;;;2.53;;
70320;SDS011;61127;55.826;37.046;2022-08-01T06:05:13;6.83;;;2.70;;
70320;SDS011;61127;55.826;37.046;2022-08-01T06:07:39;8.52;;;2.60;;
70320;SDS011;61127;55.826;37.046;2022-08-01T06:10:05;6.75;;;2.75;;
70320;SDS011;61127;55.826;37.046;2022-08-01T06:12:33;7.50;;;2.50;;
70320;SDS011;61127;55.826;37.046;2022-08-01T06:14:59;5.67;;;2.37;;
70320;SDS011;61127;55.826;37.046;2022-08-01T06:17:25;3.55;;;2.40;;
70320;SDS011;61127;55.826;37.046;2022-08-01T06:19:51;7.90;;;2.50;;
70320;SDS011;61127;55.826;37.046;2022-08-01T06:22:17;8.00;;;2.80;;
70320;SDS011;61127;55.826;37.046;2022-08-01T06:24:43;6.15;;;2.65;;
70320;SDS011;61127;55.826;37.046;2022-08-01T06:27:09;6.10;;;2.50;;
70320;SDS011;61127;55.826;37.046;2022-08-01T06:29:35;7.40;;;3.63;;
70320;SDS011;61127;55.826;37.046;2022-08-01T06:32:01;6.93;;;2.45;;
70320;SDS011;61127;55.826;37.046;2022-08-01T06:34:27;4.90;;;2.50;;
70320;SDS011;61127;55.826;37.046;2022-08-01T06:36:54;3.70;;;2.30;;
70320;SDS011;61127;55.826;37.046;2022-08-01T06:39:19;7.35;;;2.35;;
70320;SDS011;61127;55.826;37.046;2022-08-01T06:41:45;7.70;;;2.43;;
70320;SDS011;61127;55.826;37.046;2022-08-01T06:44:12;5.13;;;2.50;;
70320;SDS011;61127;55.826;37.046;2022-08-01T06:46:38;8.60;;;2.40;;
70320;SDS011;61127;55.826;37.046;2022-08-01T06:49:04;5.80;;;2.30;;
70320;SDS011;61127;55.826;37.046;2022-08-01T06:51:30;6.10;;;2.47;;
70320;SDS011;61127;55.826;37.046;2022-08-01T06:53:56;8.88;;;2.13;;
70320;SDS011;61127;55.826;37.046;2022-08-01T06:56:22;4.35;;;2.17;;
70320;SDS011;61127;55.826;37.046;2022-08-01T06:58:49;4.13;;;1.90;;
70320;SDS011;61127;55.826;37.046;2022-08-01T07:01:15;4.18;;;2.10;;
70320;SDS011;61127;55.826;37.046;2022-08-01T07:03:43;5.68;;;2.10;;
70320;SDS011;61127;55.826;37.046;2022-08-01T07:06:09;5.93;;;2.38;;
70320;SDS011;61127;55.826;37.046;2022-08-01T07:08:35;4.03;;;1.77;;
70320;SDS011;61127;55.826;37.046;2022-08-01T07:11:01;5.87;;;2.10;;
70320;SDS011;61127;55.826;37.046;2022-08-01T07:13:29;8.40;;;3.00;;
70320;SDS011;61127;55.826;37.046;2022-08-01T07:15:56;3.80;;;2.15;;
70320;SDS011;61127;55.826;37.046;2022-08-01T07:18:22;5.57;;;2.42;;
70320;SDS011;61127;55.826;37.046;2022-08-01T07:20:48;3.93;;;2.00;;
70320;SDS011;61127;55.826;37.046;2022-08-01T07:23:16;3.97;;;2.00;;
70320;SDS011;61127;55.826;37.046;2022-08-01T07:25:42;8.93;;;2.17;;
70320;SDS011;61127;55.826;37.046;2022-08-01T07:28:08;6.77;;;2.07;;
70320;SDS011;61127;55.826;37.046;2022-08-01T07:30:34;8.30;;;1.93;;
70320;SDS011;61127;55.826;37.046;2022-08-01T07:33:00;5.15;;;2.10;;
70320;SDS011;61127;55.826;37.046;2022-08-01T07:35:26;6.45;;;2.72;;
70320;SDS011;61127;55.826;37.046;2022-08-01T07:37:52;4.57;;;2.30;;
70320;SDS011;61127;55.826;37.046;2022-08-01T07:40:18;6.30;;;2.40;;
70320;SDS011;61127;55.826;37.046;2022-08-01T07:42:45;6.80;;;2.50;;
70320;SDS011;61127;55.826;37.046;2022-08-01T07:45:12;3.78;;;2.40;;
70320;SDS011;61127;55.826;37.046;2022-08-01T07:47:38;8.80;;;2.42;;
70320;SDS011;61127;55.826;37.046;2022-08-01T07:50:04;6.53;;;2.40;;
70320;SDS011;61127;55.826;37.046;2022-08-01T07:52:32;5.07;;;2.40;;
70320;SDS011;61127;55.826;37.046;2022-08-01T07:54:58;4.78;;;2.67;;
70320;SDS011;61127;55.826;37.046;2022-08-01T07:57:24;8.57;;;2.20;;
70320;SDS011;61127;55.826;37.046;2022-08-01T07:59:50;5.55;;;2.50;;
70320;SDS011;61127;55.826;37.046;2022-08-01T08:02:17;6.68;;;2.13;;
70320;SDS011;61127;55.826;37.046;2022-08-01T08:04:43;5.85;;;2.60;;
70320;SDS011;61127;55.826;37.046;2022-08-01T08:07:09;7.07;;;2.70;;
70320;SDS011;61127;55.826;37.046;2022-08-01T08:09:34;4.07;;;2.42;;
70320;SDS011;61127;55.826;37.046;2022-08-01T08:12:00;6.30;;;2.33;;
70320;SDS011;61127;55.826;37.046;2022-08-01T08:14:28;8.18;;;2.53;;
70320;SDS011;61127;55.826;37.046;2022-08-01T08:16:54;4.53;;;2.57;;
70320;SDS011;61127;55.826;37.046;2022-08-01T08:19:20;9.10;;;2.67;;
70320;SDS011;61127;55.826;37.046;2022-08-01T08:21:45;5.63;;;2.50;;
70320;SDS011;61127;55.826;37.046;2022-08-01T08:24:11;10.33;;;2.57;;
70320;SDS011;61127;55.826;37.046;2022-08-01T08:26:50;10.07;;;3.60;;
70320;SDS011;61127;55.826;37.046;2022-08-01T08:29:18;3.67;;;2.50;;
70320;SDS011;61127;55.826;37.046;2022-08-01T08:31:45;5.97;;;2.57;;
70320;SDS011;61127;55.826;37.046;2022-08-01T08:34:12;7.25;;;2.70;;
70320;SDS011;61127;55.826;37.046;2022-08-01T08:36:38;6.93;;;2.80;;
70320;SDS011;61127;55.826;37.046;2022-08-01T08:39:04;4.73;;;2.50;;
70320;SDS011;61127;55.826;37.046;2022-08-01T08:41:31;8.73;;;2.72;;
70320;SDS011;61127;55.826;37.046;2022-08-01T08:44:00;5.35;;;2.40;;
70320;SDS011;61127;55.826;37.046;2022-08-01T08:46:30;6.50;;;2.60;;
70320;SDS011;61127;55.826;37.046;2022-08-01T08:49:01;3.30;;;2.10;;
70320;SDS011;61127;55.826;37.046;2022-08-01T08:51:30;5.00;;;2.23;;
70320;SDS011;61127;55.826;37.046;2022-08-01T08:53:58;5.22;;;2.30;;
70320;SDS011;61127;55.826;37.046;2022-08-01T08:56:25;7.13;;;3.00;;
70320;SDS011;61127;55.826;37.046;2022-08-01T08:58:55;5.20;;;2.38;;
70320;SDS011;61127;55.826;37.046;2022-08-01T09:01:22;7.28;;;2.53;;
70320;SDS011;61127;55.826;37.046;2022-08-01T09:03:48;5.80;;;2.17;;
70320;SDS011;61127;55.826;37.046;2022-08-01T09:06:14;6.35;;;2.08;;
70320;SDS011;61127;55.826;37.046;2022-08-01T09:08:40;4.70;;;2.20;;
70320;SDS011;61127;55.826;37.046;2022-08-01T09:11:05;4.97;;;2.53;;
70320;SDS011;61127;55.826;37.046;2022-08-01T09:13:31;5.55;;;2.53;;
70320;SDS011;61127;55.826;37.046;2022-08-01T09:15:59;4.57;;;2.30;;
70320;SDS011;61127;55.826;37.046;2022-08-01T09:21:08;6.53;;;2.67;;
70320;SDS011;61127;55.826;37.046;2022-08-01T09:23:47;4.82;;;2.40;;
70320;SDS011;61127;55.826;37.046;2022-08-01T09:26:19;8.45;;;2.55;;
70320;SDS011;61127;55.826;37.046;2022-08-01T09:28:48;5.27;;;2.30;;
70320;SDS011;61127;55.826;37.046;2022-08-01T09:31:15;4.82;;;2.58;;
70320;SDS011;61127;55.826;37.046;2022-08-01T09:33:53;6.80;;;2.40;;
70320;SDS011;61127;55.826;37.046;2022-08-01T09:36:24;6.57;;;2.75;;
70320;SDS011;61127;55.826;37.046;2022-08-01T09:38:53;4.28;;;2.55;;
70320;SDS011;61127;55.826;37.046;2022-08-01T09:41:29;6.33;;;2.77;;
70320;SDS011;61127;55.826;37.046;2022-08-01T09:43:57;3.88;;;1.95;;
70320;SDS011;61127;55.826;37.046;2022-08-01T09:46:23;3.92;;;2.20;;
70320;SDS011;61127;55.826;37.046;2022-08-01T09:49:03;7.65;;;2.75;;
70320;SDS011;61127;55.826;37.046;2022-08-01T09:51:34;5.82;;;2.92;;
70320;SDS011;61127;55.826;37.046;2022-08-01T09:54:05;7.53;;;2.80;;
70320;SDS011;61127;55.826;37.046;2022-08-01T09:56:39;7.88;;;2.95;;
70320;SDS011;61127;55.826;37.046;2022-08-01T09:59:08;7.53;;;3.00;;
70320;SDS011;61127;55.826;37.046;2022-08-01T10:04:15;6.30;;;2.83;;
70320;SDS011;61127;55.826;37.046;2022-08-01T10:06:46;4.13;;;3.00;;
70320;SDS011;61127;55.826;37.046;2022-08-01T10:09:27;6.22;;;2.67;;
70320;SDS011;61127;55.826;37.046;2022-08-01T10:11:55;7.60;;;2.53;;
70320;SDS011;61127;55.826;37.046;2022-08-01T10:14:25;4.80;;;2.55;;
70320;SDS011;61127;55.826;37.046;2022-08-01T10:16:52;7.63;;;2.22;;
70320;SDS011;61127;55.826;37.046;2022-08-01T10:19:21;8.20;;;2.53;;
70320;SDS011;61127;55.826;37.046;2022-08-01T10:21:50;5.05;;;2.63;;
70320;SDS011;61127;55.826;37.046;2022-08-01T10:24:19;5.00;;;2.40;;
70320;SDS011;61127;55.826;37.046;2022-08-01T10:26:55;4.15;;;2.42;;
70320;SDS011;61127;55.826;37.046;2022-08-01T10:29:31;4.47;;;2.20;;
70320;SDS011;61127;55.826;37.046;2022-08-01T10:32:04;6.17;;;2.70;;
70320;SDS011;61127;55.826;37.046;2022-08-01T10:34:30;4.63;;;2.47;;
70320;SDS011;61127;55.826;37.046;2022-08-01T10:36:57;5.40;;;2.30;;
70320;SDS011;61127;55.826;37.046;2022-08-01T10:39:23;4.18;;;2.40;;
70320;SDS011;61127;55.826;37.046;2022-08-01T10:41:51;4.88;;;2.10;;
70320;SDS011;61127;55.826;37.046;2022-08-01T10:44:18;5.83;;;2.30;;
70320;SDS011;61127;55.826;37.046;2022-08-01T10:46:46;5.07;;;2.10;;
70320;SDS011;61127;55.826;37.046;2022-08-01T10:49:17;3.83;;;2.22;;
70320;SDS011;61127;55.826;37.046;2022-08-01T10:51:45;6.28;;;2.63;;
70320;SDS011;61127;55.826;37.046;2022-08-01T10:54:12;9.18;;;3.00;;
70320;SDS011;61127;55.826;37.046;2022-08-01T10:56:45;5.63;;;2.90;;
70320;SDS011;61127;55.826;37.046;2022-08-01T10:59:24;4.70;;;2.83;;
70320;SDS011;61127;55.826;37.046;2022-08-01T11:04:32;7.13;;;2.92;;
70320;SDS011;61127;55.826;37.046;2022-08-01T11:07:05;4.32;;;3.03;;
70320;SDS011;61127;55.826;37.046;2022-08-01T11:12:13;4.18;;;2.60;;
70320;SDS011;61127;55.826;37.046;2022-08-01T11:17:33;7.63;;;3.10;;
70320;SDS011;61127;55.826;37.046;2022-08-01T11:20:10;5.93;;;3.00;;
70320;SDS011;61127;55.826;37.046;2022-08-01T11:25:23;5.40;;;3.20;;
70320;SDS011;61127;55.826;37.046;2022-08-01T11:27:59;4.40;;;3.38;;
70320;SDS011;61127;55.826;37.046;2022-08-01T11:30:49;4.38;;;3.58;;
70320;SDS011;61127;55.826;37.046;2022-08-01T11:33:16;5.82;;;3.90;;
70320;SDS011;61127;55.826;37.046;2022-08-01T11:41:20;6.63;;;3.63;;
70320;SDS011;61127;55.826;37.046;2022-08-01T11:54:43;6.97;;;4.18;;
70320;SDS011;61127;55.826;37.046;2022-08-01T11:57:14;6.28;;;3.58;;
70320;SDS011;61127;55.826;37.046;2022-08-01T11:59:48;7.20;;;4.10;;
70320;SDS011;61127;55.826;37.046;2022-08-01T12:04:55;5.03;;;4.40;;
70320;SDS011;61127;55.826;37.046;2022-08-01T12:07:38;4.85;;;4.35;;
70320;SDS011;61127;55.826;37.046;2022-08-01T12:10:06;5.15;;;4.75;;
70320;SDS011;61127;55.826;37.046;2022-08-01T12:12:50;5.10;;;4.60;;
70320;SDS011;61127;55.826;37.046;2022-08-01T12:15:18;7.10;;;4.87;;
70320;SDS011;61127;55.826;37.046;2022-08-01T12:17:48;5.15;;;4.50;;
70320;SDS011;61127;55.826;37.046;2022-08-01T12:20:18;6.53;;;4.95;;
70320;SDS011;61127;55.826;37.046;2022-08-01T12:22:46;6.88;;;5.25;;
70320;SDS011;61127;55.826;37.046;2022-08-01T12:25:15;4.72;;;4.18;;
70320;SDS011;61127;55.826;37.046;2022-08-01T12:27:43;5.77;;;4.37;;
70320;SDS011;61127;55.826;37.046;2022-08-01T12:30:14;6.50;;;4.55;;
70320;SDS011;61127;55.826;37.046;2022-08-01T12:32:43;6.93;;;5.43;;
70320;SDS011;61127;55.826;37.046;2022-08-01T12:35:14;5.45;;;4.80;;
70320;SDS011;61127;55.826;37.046;2022-08-01T12:37:42;6.20;;;4.95;;
70320;SDS011;61127;55.826;37.046;2022-08-01T12:42:43;5.47;;;4.60;;
70320;SDS011;61127;55.826;37.046;2022-08-01T12:45:20;5.97;;;4.85;;
70320;SDS011;61127;55.826;37.046;2022-08-01T12:47:49;5.85;;;4.80;;
70320;SDS011;61127;55.826;37.046;2022-08-01T12:50:20;6.47;;;5.15;;
70320;SDS011;61127;55.826;37.046;2022-08-01T12:52:48;6.97;;;4.77;;
70320;SDS011;61127;55.826;37.046;2022-08-01T12:55:19;7.35;;;4.38;;
70320;SDS011;61127;55.826;37.046;2022-08-01T12:57:48;6.72;;;4.30;;
70320;SDS011;61127;55.826;37.046;2022-08-01T13:00:25;5.70;;;4.22;;
70320;SDS011;61127;55.826;37.046;2022-08-01T13:03:04;5.38;;;4.18;;
70320;SDS011;61127;55.826;37.046;2022-08-01T13:05:42;8.87;;;4.50;;
70320;SDS011;61127;55.826;37.046;2022-08-01T13:08:20;7.95;;;4.28;;
70320;SDS011;61127;55.826;37.046;2022-08-01T13:11:09;6.15;;;4.18;;
70320;SDS011;61127;55.826;37.046;2022-08-01T13:13:50;5.32;;;4.30;;
70320;SDS011;61127;55.826;37.046;2022-08-01T13:16:17;5.50;;;4.25;;
70320;SDS011;61127;55.826;37.046;2022-08-01T13:18:51;10.97;;;5.27;;
70320;SDS011;61127;55.826;37.046;2022-08-01T13:21:18;6.97;;;4.78;;
70320;SDS011;61127;55.826;37.046;2022-08-01T13:26:39;8.13;;;4.55;;
70320;SDS011;61127;55.826;37.046;2022-08-01T13:29:31;6.47;;;3.85;;
70320;SDS011;61127;55.826;37.046;2022-08-01T13:31:58;7.83;;;3.80;;
70320;SDS011;61127;55.826;37.046;2022-08-01T13:34:30;6.20;;;4.00;;
70320;SDS011;61127;55.826;37.046;2022-08-01T13:37:00;8.13;;;4.30;;
70320;SDS011;61127;55.826;37.046;2022-08-01T13:39:33;7.03;;;4.07;;
70320;SDS011;61127;55.826;37.046;2022-08-01T13:42:14;5.57;;;4.15;;
70320;SDS011;61127;55.826;37.046;2022-08-01T13:44:40;4.87;;;3.77;;
70320;SDS011;61127;55.826;37.046;2022-08-01T13:47:07;7.13;;;4.20;;
70320;SDS011;61127;55.826;37.046;2022-08-01T13:49:33;8.50;;;4.07;;
70320;SDS011;61127;55.826;37.046;2022-08-01T13:52:00;4.13;;;3.50;;
70320;SDS011;61127;55.826;37.046;2022-08-01T13:54:26;6.93;;;3.58;;
70320;SDS011;61127;55.826;37.046;2022-08-01T13:56:52;7.97;;;3.93;;
70320;SDS011;61127;55.826;37.046;2022-08-01T13:59:19;6.03;;;3.78;;
70320;SDS011;61127;55.826;37.046;2022-08-01T14:01:45;6.10;;;3.47;;
70320;SDS011;61127;55.826;37.046;2022-08-01T14:04:12;6.38;;;3.28;;
70320;SDS011;61127;55.826;37.046;2022-08-01T14:06:38;7.82;;;3.42;;
70320;SDS011;61127;55.826;37.046;2022-08-01T14:09:04;8.53;;;3.50;;
70320;SDS011;61127;55.826;37.046;2022-08-01T14:11:31;3.45;;;3.10;;
70320;SDS011;61127;55.826;37.046;2022-08-01T14:13:57;4.95;;;2.90;;
70320;SDS011;61127;55.826;37.046;2022-08-01T14:16:22;5.87;;;3.10;;
70320;SDS011;61127;55.826;37.046;2022-08-01T14:18:48;4.25;;;2.80;;
70320;SDS011;61127;55.826;37.046;2022-08-01T14:21:14;9.82;;;2.80;;
70320;SDS011;61127;55.826;37.046;2022-08-01T14:23:40;7.93;;;2.80;;
70320;SDS011;61127;55.826;37.046;2022-08-01T14:26:08;7.00;;;3.05;;
70320;SDS011;61127;55.826;37.046;2022-08-01T14:28:35;5.43;;;2.80;;
70320;SDS011;61127;55.826;37.046;2022-08-01T14:31:01;4.60;;;2.90;;
70320;SDS011;61127;55.826;37.046;2022-08-01T14:33:27;3.67;;;2.70;;
70320;SDS011;61127;55.826;37.046;2022-08-01T14:35:54;8.93;;;3.00;;
70320;SDS011;61127;55.826;37.046;2022-08-01T14:38:20;5.63;;;2.55;;
70320;SDS011;61127;55.826;37.046;2022-08-01T14:40:46;8.15;;;2.90;;
70320;SDS011;61127;55.826;37.046;2022-08-01T14:43:18;7.50;;;2.90;;
70320;SDS011;61127;55.826;37.046;2022-08-01T14:45:44;8.13;;;2.93;;
70320;SDS011;61127;55.826;37.046;2022-08-01T14:48:10;10.32;;;3.00;;
70320;SDS011;61127;55.826;37.046;2022-08-01T14:50:36;5.63;;;3.20;;
70320;SDS011;61127;55.826;37.046;2022-08-01T14:53:02;7.63;;;3.10;;
70320;SDS011;61127;55.826;37.046;2022-08-01T14:55:28;5.40;;;2.83;;
70320;SDS011;61127;55.826;37.046;2022-08-01T14:57:54;4.93;;;3.00;;
70320;SDS011;61127;55.826;37.046;2022-08-01T15:00:19;8.40;;;3.53;;
70320;SDS011;61127;55.826;37.046;2022-08-01T15:02:48;7.95;;;3.10;;
70320;SDS011;61127;55.826;37.046;2022-08-01T15:05:13;7.20;;;3.55;;
70320;SDS011;61127;55.826;37.046;2022-08-01T15:07:39;6.80;;;3.77;;
70320;SDS011;61127;55.826;37.046;2022-08-01T15:10:05;9.55;;;3.90;;
70320;SDS011;61127;55.826;37.046;2022-08-01T15:12:31;9.77;;;3.40;;
70320;SDS011;61127;55.826;37.046;2022-08-01T15:14:57;7.00;;;3.40;;
70320;SDS011;61127;55.826;37.046;2022-08-01T15:17:24;5.97;;;3.80;;
70320;SDS011;61127;55.826;37.046;2022-08-01T15:19:55;11.35;;;3.60;;
70320;SDS011;61127;55.826;37.046;2022-08-01T15:22:22;6.75;;;3.47;;
70320;SDS011;61127;55.826;37.046;2022-08-01T15:24:50;7.37;;;4.57;;
70320;SDS011;61127;55.826;37.046;2022-08-01T15:27:16;7.43;;;3.60;;
70320;SDS011;61127;55.826;37.046;2022-08-01T15:29:43;10.77;;;3.95;;
70320;SDS011;61127;55.826;37.046;2022-08-01T15:32:09;12.75;;;4.15;;
70320;SDS011;61127;55.826;37.046;2022-08-01T15:34:35;10.88;;;4.43;;
70320;SDS011;61127;55.826;37.046;2022-08-01T15:37:02;6.50;;;3.30;;
70320;SDS011;61127;55.826;37.046;2022-08-01T15:39:28;4.55;;;2.90;;